createdAt,value
2022-10-23T00:01:47.196Z,101187.66
2022-10-23T00:06:54.197Z,101184.59
2022-10-23T00:11:57.043Z,101190.50
2022-10-23T00:17:00.204Z,101203.59
2022-10-23T00:22:04.497Z,101201.09
2022-10-23T00:27:07.253Z,101202.03
2022-10-23T00:32:10.023Z,101210.50
2022-10-23T00:37:14.130Z,101213.50
2022-10-23T00:42:17.919Z,101196.38
2022-10-23T00:47:20.869Z,101198.66
2022-10-23T00:52:25.604Z,101197.09
2022-10-23T01:02:31.520Z,101199.34
2022-10-23T01:07:44.511Z,101200.72
2022-10-23T01:12:53.638Z,101204.09
2022-10-23T01:18:01.238Z,101198.56
2022-10-23T01:23:18.355Z,101197.56
2022-10-23T01:28:30.557Z,101206.13
2022-10-23T01:33:37.022Z,101201.84
2022-10-23T01:38:45.899Z,101192.59
2022-10-23T01:44:05.277Z,101184.81
2022-10-23T01:49:13.952Z,101183.81
2022-10-23T01:54:20.518Z,101193.75
2022-10-23T01:59:30.868Z,101191.16
2022-10-23T02:04:37.489Z,101185.88
2022-10-23T02:09:41.077Z,101187.53
2022-10-23T02:14:54.434Z,101189.81
2022-10-23T02:20:01.533Z,101177.09
2022-10-23T02:25:10.339Z,101179.91
2022-10-23T02:30:19.803Z,101179.09
2022-10-23T02:35:29.519Z,101179.78
2022-10-23T02:40:45.314Z,101172.91
2022-10-23T02:45:56.942Z,101183.06
2022-10-23T02:51:07.286Z,101182.63
2022-10-23T02:56:17.056Z,101173.13
2022-10-23T03:01:27.403Z,101162.78
2022-10-23T03:06:30.537Z,101170.44
2022-10-23T03:11:33.459Z,101160.75
2022-10-23T03:16:37.596Z,101159.75
2022-10-23T03:21:41.187Z,101164.25
2022-10-23T03:26:44.659Z,101170.78
2022-10-23T03:31:48.894Z,101169.34
2022-10-23T03:36:51.769Z,101159.44
2022-10-23T03:41:56.468Z,101157.50
2022-10-23T03:47:00.810Z,101152.91
2022-10-23T03:52:03.966Z,101154.94
2022-10-23T03:57:06.712Z,101158.88
2022-10-23T04:02:11.615Z,101155.84
2022-10-23T04:07:14.525Z,101155.41
2022-10-23T04:12:17.414Z,101155.72
2022-10-23T04:17:21.707Z,101160.22
2022-10-23T04:22:28.305Z,101160.09
2022-10-23T04:27:31.380Z,101154.59
2022-10-23T04:32:36.448Z,101136.13
2022-10-23T04:37:40.719Z,101135.56
2022-10-23T04:42:44.154Z,101122.63
2022-10-23T04:47:50.126Z,101131.31
2022-10-23T04:52:55.289Z,101134.44
2022-10-23T04:58:16.459Z,101135.88
2022-10-23T05:03:23.338Z,101123.28
2022-10-23T05:08:26.381Z,101129.00
2022-10-23T05:13:47.825Z,101123.03
2022-10-23T05:18:52.335Z,101121.81
2022-10-23T05:23:57.359Z,101117.09
2022-10-23T05:29:00.289Z,101121.44
2022-10-23T05:34:09.920Z,101110.22
2022-10-23T05:39:20.166Z,101110.22
2022-10-23T05:44:23.244Z,101108.88
2022-10-23T05:49:40.734Z,101104.81
2022-10-23T05:55:01.664Z,101115.38
2022-10-23T06:00:22.775Z,101122.78
2022-10-23T06:05:42.738Z,101125.50
2022-10-23T06:10:57.536Z,101124.03
2022-10-23T06:16:00.269Z,101125.72
2022-10-23T06:21:07.667Z,101129.66
2022-10-23T06:26:13.439Z,101124.56
2022-10-23T06:31:41.177Z,101120.97
2022-10-23T06:36:45.395Z,101114.47
2022-10-23T06:42:15.068Z,101113.50
2022-10-23T06:47:38.077Z,101108.78
2022-10-23T06:53:00.929Z,101112.47
2022-10-23T06:58:04.572Z,101106.06
2022-10-23T07:03:08.547Z,101105.50
2022-10-23T07:08:13.083Z,101111.56
2022-10-23T07:13:18.210Z,101097.97
2022-10-23T07:18:37.275Z,101101.22
2022-10-23T07:24:00.494Z,101115.53
2022-10-23T07:29:04.007Z,101120.16
2022-10-23T07:34:10.884Z,101124.22
2022-10-23T07:39:15.508Z,101120.34
2022-10-23T07:44:27.898Z,101117.84
2022-10-23T07:49:35.131Z,101119.97
2022-10-23T07:54:39.331Z,101117.09
2022-10-23T07:59:54.959Z,101119.06
2022-10-23T08:04:59.780Z,101099.09
2022-10-23T08:10:11.108Z,101089.38
2022-10-23T08:15:16.955Z,101089.31
2022-10-23T08:20:35.271Z,101086.34
2022-10-23T08:25:40.078Z,101087.41
2022-10-23T08:30:44.538Z,101081.13
2022-10-23T08:35:48.345Z,101072.88
2022-10-23T08:41:01.480Z,101081.63
2022-10-23T08:46:21.009Z,101075.25
2022-10-23T08:52:03.737Z,101071.50
2022-10-23T08:57:14.707Z,101067.47
2022-10-23T09:02:22.444Z,101059.31
2022-10-23T09:07:36.466Z,101057.16
2022-10-23T09:12:41.070Z,101047.09
2022-10-23T09:17:45.677Z,101043.41
2022-10-23T09:22:51.217Z,101046.69
2022-10-23T09:27:59.051Z,101038.25
2022-10-23T09:33:16.231Z,101046.78
2022-10-23T09:38:28.624Z,101045.34
2022-10-23T09:43:32.800Z,101048.97
2022-10-23T09:48:40.051Z,101046.00
2022-10-23T09:53:50.428Z,101052.38
2022-10-23T09:58:57.544Z,101047.81
2022-10-23T10:04:00.673Z,101052.41
2022-10-23T10:09:09.338Z,101043.28
2022-10-23T10:14:39.245Z,101030.50
2022-10-23T10:20:08.554Z,101025.03
2022-10-23T10:25:18.293Z,101021.28
2022-10-23T10:30:24.675Z,101016.78
2022-10-23T10:35:35.332Z,101003.00
2022-10-23T10:40:43.748Z,100983.19
2022-10-23T10:46:01.986Z,100969.63
2022-10-23T10:51:08.482Z,100974.25
2022-10-23T10:56:21.599Z,100979.47
2022-10-23T11:01:29.909Z,100966.25
2022-10-23T11:06:37.587Z,100955.59
2022-10-23T11:11:41.647Z,100943.50
2022-10-23T11:16:49.032Z,100938.81
2022-10-23T11:21:58.401Z,100938.94
2022-10-23T11:27:19.684Z,100926.97
2022-10-23T11:32:50.214Z,100924.44
2022-10-23T11:38:01.147Z,100911.72
2022-10-23T11:43:03.902Z,100907.66
2022-10-23T11:48:22.990Z,100897.75
2022-10-23T11:53:28.981Z,100890.00
2022-10-23T11:58:44.309Z,100877.06
2022-10-23T12:03:55.236Z,100864.03
2022-10-23T12:09:01.884Z,100870.66
2022-10-23T12:14:04.799Z,100857.81
2022-10-23T12:19:21.385Z,100849.34
2022-10-23T12:24:53.612Z,100840.66
2022-10-23T12:30:12.888Z,100832.50
2022-10-23T12:35:37.107Z,100816.28
2022-10-23T12:40:39.988Z,100801.44
2022-10-23T12:45:45.094Z,100791.94
2022-10-23T12:50:52.003Z,100782.59
2022-10-23T13:01:07.888Z,100752.06
2022-10-23T13:06:12.681Z,100730.28
2022-10-23T13:11:18.501Z,100730.28
2022-10-23T13:16:23.597Z,100715.81
2022-10-23T13:21:29.666Z,100710.78
2022-10-23T13:26:34.954Z,100711.91
2022-10-23T13:31:38.282Z,100702.41
2022-10-23T13:36:53.606Z,100691.53
2022-10-23T13:41:58.142Z,100673.28
2022-10-23T13:47:00.986Z,100664.38
2022-10-23T13:52:05.289Z,100653.16
2022-10-23T13:57:14.586Z,100650.22
2022-10-23T14:02:20.954Z,100657.44
2022-10-23T14:07:25.256Z,100664.88
2022-10-23T14:12:28.078Z,100655.69
2022-10-23T14:17:30.896Z,100654.31
2022-10-23T14:22:35.032Z,100642.28
2022-10-23T14:27:37.824Z,100645.47
2022-10-23T14:32:40.907Z,100657.19
2022-10-23T14:37:45.517Z,100629.72
2022-10-23T14:42:48.698Z,100626.47
2022-10-23T14:47:51.491Z,100629.22
2022-10-23T14:52:55.593Z,100617.53
2022-10-23T14:57:58.588Z,100610.34
2022-10-23T15:03:01.593Z,100603.78
2022-10-23T15:08:05.835Z,100620.19
2022-10-23T15:13:08.696Z,100606.03
2022-10-23T15:18:11.499Z,100589.22
2022-10-23T15:23:15.609Z,100575.56
2022-10-23T15:28:18.412Z,100573.44
2022-10-23T15:33:22.084Z,100547.22
2022-10-23T15:38:26.406Z,100553.59
2022-10-23T15:43:29.195Z,100545.53
2022-10-23T15:48:31.955Z,100565.38
2022-10-23T15:53:36.389Z,100554.72
2022-10-23T15:58:39.509Z,100549.31
2022-10-23T16:03:42.468Z,100521.78
2022-10-23T16:08:47.075Z,100474.75
2022-10-23T16:13:50.261Z,100465.97
2022-10-23T16:18:56.691Z,100479.94
2022-10-23T16:24:02.984Z,100466.03
2022-10-23T16:29:09.139Z,100456.63
2022-10-23T16:34:12.726Z,100464.31
2022-10-23T16:39:18.980Z,100476.53
2022-10-23T16:44:40.149Z,100491.44
2022-10-23T16:49:43.290Z,100472.97
2022-10-23T16:54:47.429Z,100464.25
2022-10-23T16:59:50.174Z,100468.38
2022-10-23T17:04:53.639Z,100461.25
2022-10-23T17:09:57.790Z,100458.53
2022-10-23T17:15:00.635Z,100437.50
2022-10-23T17:20:04.450Z,100432.34
2022-10-23T17:25:10.596Z,100436.88
2022-10-23T17:30:14.460Z,100445.66
2022-10-23T17:35:17.316Z,100419.31
2022-10-23T17:40:25.032Z,100411.31
2022-10-23T17:45:28.291Z,100387.03
2022-10-23T17:50:31.175Z,100380.88
2022-10-23T17:55:38.902Z,100379.78
2022-10-23T18:00:41.821Z,100373.75
2022-10-23T18:05:44.646Z,100369.34
2022-10-23T18:10:52.170Z,100358.75
2022-10-23T18:15:54.963Z,100384.97
2022-10-23T18:21:01.033Z,100389.56
2022-10-23T18:26:07.049Z,100388.69
2022-10-23T18:31:10.293Z,100379.09
2022-10-23T18:36:14.746Z,100383.38
2022-10-23T18:41:20.061Z,100381.81
2022-10-23T18:46:23.548Z,100386.97
2022-10-23T18:51:28.676Z,100389.97
2022-10-23T18:56:35.708Z,100402.50
2022-10-23T19:01:40.822Z,100378.09
2022-10-23T19:06:44.166Z,100395.44
2022-10-23T19:11:48.588Z,100391.13
2022-10-23T19:17:01.150Z,100388.81
2022-10-23T19:22:05.657Z,100381.63
2022-10-23T19:27:10.607Z,100382.50
2022-10-23T19:32:13.821Z,100382.50
2022-10-23T19:37:16.682Z,100376.06
2022-10-23T19:42:21.113Z,100389.09
2022-10-23T19:47:24.240Z,100411.56
2022-10-23T19:52:27.378Z,100412.38
2022-10-23T19:57:33.728Z,100406.69
2022-10-23T20:02:36.798Z,100401.81
2022-10-23T20:07:39.558Z,100402.19
2022-10-23T20:12:51.491Z,100391.19
2022-10-23T20:17:59.698Z,100389.19
2022-10-23T20:23:02.547Z,100378.81
2022-10-23T20:28:09.081Z,100386.53
2022-10-23T20:33:14.455Z,100372.91
2022-10-23T20:38:17.306Z,100339.13
2022-10-23T20:43:21.635Z,100268.16
2022-10-23T20:48:24.367Z,100259.75
2022-10-23T20:53:29.599Z,100336.09
2022-10-23T20:58:34.119Z,100301.94
2022-10-23T21:03:37.166Z,100299.34
2022-10-23T21:08:42.598Z,100299.94
2022-10-23T21:13:46.825Z,100302.56
2022-10-23T21:18:49.690Z,100283.28
2022-10-23T21:23:54.658Z,100255.00
2022-10-23T21:29:17.317Z,100241.56
2022-10-23T21:34:21.083Z,100220.97
2022-10-23T21:39:24.205Z,100167.88
2022-10-23T21:44:28.429Z,100156.25
2022-10-23T21:49:31.211Z,100131.97
2022-10-23T21:54:34.122Z,100126.53
2022-10-23T21:59:38.273Z,100133.56
2022-10-23T22:04:41.468Z,100188.09
2022-10-23T22:09:44.645Z,100164.03
2022-10-23T22:14:48.766Z,100162.78
2022-10-23T22:19:51.609Z,100165.91
2022-10-23T22:24:54.411Z,100175.94
2022-10-23T22:29:58.625Z,100184.50
2022-10-23T22:35:01.449Z,100189.25
2022-10-23T22:40:06.613Z,100195.97
2022-10-23T22:45:11.449Z,100184.53
2022-10-23T22:50:16.279Z,100204.28
2022-10-23T22:55:19.100Z,100237.41
2022-10-23T23:00:23.555Z,100259.81
2022-10-23T23:05:26.616Z,100256.09
2022-10-23T23:10:29.463Z,100276.16
2022-10-23T23:15:34.025Z,100278.03
2022-10-23T23:20:36.968Z,100286.66
2022-10-23T23:25:42.298Z,100274.38
2022-10-23T23:30:48.093Z,100274.88
2022-10-23T23:35:50.945Z,100278.44
2022-10-23T23:40:55.263Z,100281.44
2022-10-23T23:45:59.938Z,100287.41
2022-10-23T23:51:02.701Z,100275.56
2022-10-23T23:56:05.992Z,100271.38
